createdAt,value
2022-09-28T00:04:16.966Z,85.30
2022-09-28T00:09:18.727Z,85.80
2022-09-28T00:14:21.123Z,86.15
2022-09-28T00:19:23.018Z,86.61
2022-09-28T00:24:27.638Z,86.78
2022-09-28T00:29:32.050Z,86.86
2022-09-28T00:34:36.291Z,87.38
2022-09-28T00:39:41.212Z,87.60
2022-09-28T00:44:49.111Z,87.85
2022-09-28T00:50:00.037Z,88.18
2022-09-28T00:55:05.637Z,88.18
2022-09-28T01:00:08.461Z,88.16
2022-09-28T01:05:11.480Z,88.35
2022-09-28T01:10:14.275Z,88.33
2022-09-28T01:15:16.074Z,88.54
2022-09-28T01:20:26.733Z,88.94
2022-09-28T01:25:47.814Z,89.43
2022-09-28T01:31:06.604Z,89.81
2022-09-28T01:36:19.299Z,89.85
2022-09-28T01:41:23.975Z,89.55
2022-09-28T01:46:31.799Z,89.89
2022-09-28T01:51:43.723Z,90.47
2022-09-28T01:56:54.463Z,90.48
2022-09-28T02:02:05.510Z,90.89
2022-09-28T02:07:15.483Z,91.20
2022-09-28T02:12:31.109Z,91.12
2022-09-28T02:17:34.032Z,91.36
2022-09-28T02:22:44.096Z,91.53
2022-09-28T02:27:57.578Z,91.29
2022-09-28T02:33:07.368Z,91.34
2022-09-28T02:38:13.828Z,91.88
2022-09-28T02:43:31.040Z,92.14
2022-09-28T02:48:55.757Z,92.18
2022-09-28T02:54:29.528Z,91.82
2022-09-28T02:59:59.083Z,91.97
2022-09-28T03:05:13.296Z,92.05
2022-09-28T03:10:30.889Z,92.40
2022-09-28T03:15:35.343Z,92.32
2022-09-28T03:20:37.378Z,92.48
2022-09-28T03:25:39.230Z,92.23
2022-09-28T03:30:41.646Z,92.20
2022-09-28T03:35:48.027Z,92.51
2022-09-28T03:40:59.815Z,92.41
2022-09-28T03:46:05.219Z,92.19
2022-09-28T03:51:13.349Z,91.85
2022-09-28T03:56:16.022Z,91.65
2022-09-28T04:01:18.184Z,91.38
2022-09-28T04:06:23.446Z,90.98
2022-09-28T04:11:25.013Z,90.67
2022-09-28T04:16:27.719Z,90.42
2022-09-28T04:21:50.554Z,90.29
2022-09-28T04:26:52.578Z,90.39
2022-09-28T04:31:56.251Z,89.96
2022-09-28T04:37:18.228Z,89.66
2022-09-28T04:42:19.914Z,89.64
2022-09-28T04:47:24.170Z,89.52
2022-09-28T04:52:51.959Z,89.20
2022-09-28T04:57:53.877Z,89.17
2022-09-28T05:02:55.961Z,88.86
2022-09-28T05:08:30.125Z,88.71
2022-09-28T05:13:35.694Z,90.09
2022-09-28T05:18:37.539Z,89.07
2022-09-28T05:23:47.382Z,88.00
2022-09-28T05:28:49.250Z,86.65
2022-09-28T05:34:09.300Z,85.93
2022-09-28T05:39:11.298Z,85.19
2022-09-28T05:44:13.457Z,84.89
2022-09-28T05:49:17.329Z,84.46
2022-09-28T05:54:19.147Z,83.82
2022-09-28T05:59:22.321Z,83.58
2022-09-28T06:04:24.697Z,84.27
2022-09-28T06:09:26.441Z,84.80
2022-09-28T06:14:45.708Z,85.16
2022-09-28T06:19:48.619Z,85.46
2022-09-28T06:25:01.137Z,85.88
2022-09-28T06:30:03.540Z,86.16
2022-09-28T06:35:05.984Z,86.37
2022-09-28T06:40:08.173Z,86.74
2022-09-28T06:45:11.094Z,87.19
2022-09-28T06:50:19.314Z,87.72
2022-09-28T06:55:43.759Z,88.07
2022-09-28T07:00:47.239Z,88.63
2022-09-28T07:05:52.571Z,89.18
2022-09-28T07:11:15.166Z,89.63
2022-09-28T07:16:28.578Z,90.07
2022-09-28T07:21:32.062Z,90.35
2022-09-28T07:26:36.490Z,90.72
2022-09-28T07:32:01.826Z,90.80
2022-09-28T07:37:32.757Z,90.95
2022-09-28T07:42:36.178Z,91.15
2022-09-28T07:47:38.237Z,91.60
2022-09-28T07:53:03.914Z,94.14
2022-09-28T07:58:15.539Z,92.97
2022-09-28T08:03:56.305Z,91.83
2022-09-28T08:08:59.885Z,92.36
2022-09-28T08:14:21.577Z,92.34
2022-09-28T08:20:00.517Z,92.65
2022-09-28T08:25:03.658Z,93.22
2022-09-28T08:30:06.119Z,92.56
2022-09-28T08:35:22.698Z,92.50
2022-09-28T08:40:59.747Z,91.89
2022-09-28T08:46:30.318Z,91.79
2022-09-28T08:52:03.181Z,92.15
2022-09-28T08:57:32.080Z,91.48
2022-09-28T09:02:39.652Z,91.90
2022-09-28T09:08:00.827Z,92.15
2022-09-28T09:13:20.959Z,92.31
2022-09-28T09:18:32.730Z,92.45
2022-09-28T09:23:55.420Z,92.50
2022-09-28T09:29:13.748Z,92.79
2022-09-28T09:34:35.869Z,92.40
2022-09-28T09:40:28.622Z,92.21
2022-09-28T09:46:04.157Z,91.21
2022-09-28T09:51:23.666Z,90.96
2022-09-28T09:56:41.181Z,91.21
2022-09-28T10:01:52.002Z,91.75
2022-09-28T10:07:34.764Z,89.49
2022-09-28T10:12:37.119Z,90.00
2022-09-28T10:17:39.426Z,90.04
2022-09-28T10:23:03.171Z,89.89
2022-09-28T10:28:07.503Z,89.98
2022-09-28T10:33:29.364Z,89.96
2022-09-28T10:38:33.614Z,89.48
2022-09-28T10:44:06.676Z,89.79
2022-09-28T10:49:18.567Z,90.41
2022-09-28T10:54:28.680Z,89.08
2022-09-28T10:59:42.212Z,88.75
2022-09-28T11:05:22.754Z,89.14
2022-09-28T11:10:30.979Z,89.73
2022-09-28T11:15:43.099Z,89.03
2022-09-28T11:20:48.774Z,88.77
2022-09-28T11:26:06.762Z,88.20
2022-09-28T11:31:10.292Z,87.73
2022-09-28T11:37:02.577Z,88.10
2022-09-28T11:42:20.544Z,88.60
2022-09-28T11:48:01.289Z,88.84
2022-09-28T11:53:04.178Z,88.04
2022-09-28T11:58:09.884Z,87.13
2022-09-28T12:03:18.128Z,86.59
2022-09-28T12:08:27.397Z,85.41
2022-09-28T12:13:37.219Z,84.45
2022-09-28T12:18:49.363Z,83.63
2022-09-28T12:24:22.070Z,83.88
2022-09-28T12:29:32.175Z,82.55
2022-09-28T12:34:33.874Z,82.53
2022-09-28T12:40:02.963Z,82.75
2022-09-28T12:45:27.661Z,83.05
2022-09-28T12:50:42.714Z,83.02
2022-09-28T12:56:20.918Z,83.32
2022-09-28T13:01:41.263Z,83.20
2022-09-28T13:06:51.454Z,83.25
2022-09-28T13:12:22.393Z,83.20
2022-09-28T13:17:56.026Z,82.75
2022-09-28T13:23:41.657Z,82.69
2022-09-28T13:28:46.975Z,82.04
2022-09-28T13:33:50.383Z,81.69
2022-09-28T13:38:53.696Z,80.99
2022-09-28T13:44:13.867Z,80.72
2022-09-28T13:49:24.622Z,80.16
2022-09-28T13:54:44.935Z,78.58
2022-09-28T13:59:53.898Z,77.87
2022-09-28T14:05:05.474Z,78.01
2022-09-28T14:10:20.930Z,77.75
2022-09-28T14:15:28.871Z,77.84
2022-09-28T14:20:31.426Z,77.74
2022-09-28T14:25:40.952Z,77.31
2022-09-28T14:30:43.204Z,77.06
2022-09-28T14:35:50.306Z,76.97
2022-09-28T14:41:12.477Z,77.22
2022-09-28T14:46:14.235Z,76.92
2022-09-28T14:51:26.167Z,76.80
2022-09-28T14:56:32.803Z,76.89
2022-09-28T15:01:36.248Z,77.29
2022-09-28T15:06:50.617Z,77.98
2022-09-28T15:11:57.482Z,77.93
2022-09-28T15:17:02.841Z,78.57
2022-09-28T15:22:15.402Z,79.08
2022-09-28T15:27:18.967Z,79.31
2022-09-28T15:32:25.762Z,78.66
2022-09-28T15:37:33.158Z,79.04
2022-09-28T15:42:36.723Z,79.32
2022-09-28T15:47:40.073Z,79.58
2022-09-28T15:52:47.196Z,80.11
2022-09-28T15:57:49.201Z,80.18
2022-09-28T16:03:06.840Z,80.56
2022-09-28T16:08:24.581Z,80.66
2022-09-28T16:13:26.613Z,80.82
2022-09-28T16:18:30.686Z,81.02
2022-09-28T16:23:34.235Z,81.16
2022-09-28T16:28:38.617Z,81.32
2022-09-28T16:33:54.039Z,81.63
2022-09-28T16:38:56.267Z,81.58
2022-09-28T16:44:02.088Z,81.60
2022-09-28T16:49:06.170Z,81.57
2022-09-28T16:54:37.553Z,81.35
2022-09-28T16:59:39.414Z,81.45
2022-09-28T17:04:43.654Z,81.64
2022-09-28T17:09:48.883Z,81.64
2022-09-28T17:14:50.564Z,81.84
2022-09-28T17:19:52.201Z,82.05
2022-09-28T17:24:53.870Z,82.39
2022-09-28T17:29:55.597Z,82.45
2022-09-28T17:35:22.598Z,82.70
2022-09-28T17:40:28.278Z,82.19
2022-09-28T17:45:31.288Z,82.19
2022-09-28T17:50:34.910Z,82.07
2022-09-28T17:55:38.884Z,81.84
2022-09-28T18:00:40.844Z,82.03
2022-09-28T18:05:44.084Z,82.18
2022-09-28T18:10:48.900Z,82.47
2022-09-28T18:15:54.901Z,82.65
2022-09-28T18:20:56.632Z,82.69
2022-09-28T18:25:59.462Z,82.68
2022-09-28T18:31:06.392Z,82.43
2022-09-28T18:36:08.544Z,82.82
2022-09-28T18:41:15.778Z,83.11
2022-09-28T18:46:18.737Z,83.20
2022-09-28T18:51:20.807Z,82.94
2022-09-28T18:56:22.679Z,83.04
2022-09-28T19:01:32.092Z,82.99
2022-09-28T19:06:36.818Z,83.27
2022-09-28T19:11:38.673Z,83.05
2022-09-28T19:16:40.907Z,83.09
2022-09-28T19:21:43.379Z,83.38
2022-09-28T19:26:46.506Z,83.21
2022-09-28T19:31:49.590Z,83.55
2022-09-28T19:36:51.317Z,83.80
2022-09-28T19:41:53.087Z,84.07
2022-09-28T19:46:59.735Z,83.83
2022-09-28T19:52:12.877Z,83.66
2022-09-28T19:57:16.369Z,83.59
2022-09-28T20:02:18.098Z,83.89
2022-09-28T20:07:20.626Z,83.90
2022-09-28T20:12:22.435Z,83.64
2022-09-28T20:17:24.146Z,83.57
2022-09-28T20:22:25.878Z,83.49
2022-09-28T20:27:27.858Z,83.61
2022-09-28T20:32:33.463Z,83.83
2022-09-28T20:37:35.234Z,84.05
2022-09-28T20:42:42.051Z,84.22
2022-09-28T20:47:43.774Z,84.13
2022-09-28T20:52:45.542Z,83.94
2022-09-28T20:57:47.389Z,83.83
2022-09-28T21:02:52.916Z,83.80
2022-09-28T21:07:54.927Z,84.09
2022-09-28T21:12:56.655Z,84.03
2022-09-28T21:17:58.368Z,83.85
2022-09-28T21:23:00.338Z,83.89
2022-09-28T21:28:02.030Z,83.93
2022-09-28T21:33:03.963Z,83.98
2022-09-28T21:38:05.650Z,83.98
2022-09-28T21:43:07.465Z,83.73
2022-09-28T21:48:09.311Z,83.58
2022-09-28T21:53:11.293Z,83.71
2022-09-28T21:58:12.963Z,84.66
2022-09-28T22:03:15.803Z,85.08
2022-09-28T22:08:18.303Z,85.70
2022-09-28T22:13:20.007Z,86.27
2022-09-28T22:18:21.767Z,86.95
2022-09-28T22:23:23.486Z,86.58
2022-09-28T22:28:25.323Z,86.40
2022-09-28T22:33:27.455Z,86.31
2022-09-28T22:38:31.793Z,85.73
2022-09-28T22:43:34.034Z,86.02
2022-09-28T22:48:36.164Z,86.12
2022-09-28T22:53:38.263Z,86.59
2022-09-28T22:58:40.029Z,86.99
2022-09-28T23:03:42.545Z,87.15
2022-09-28T23:08:45.536Z,87.46
2022-09-28T23:13:50.629Z,87.71
2022-09-28T23:18:55.870Z,88.00
2022-09-28T23:24:00.951Z,87.85
2022-09-28T23:29:03.502Z,87.87
2022-09-28T23:34:06.697Z,88.46
2022-09-28T23:39:10.125Z,87.93
2022-09-28T23:44:11.839Z,87.82
2022-09-28T23:49:13.541Z,87.89
2022-09-28T23:54:15.931Z,87.61
2022-09-28T23:59:17.773Z,87.42
